Time;durP1;ratioP1;P1;durP2;ratioP2;P2;SDS_P1;SDS_P2;PMS_P1;PMS_P2;Temp;Humidity;BMP_temperature;BMP_pressure;BME280_temperature;BME280_humidity;BME280_pressure;Samples;Min_cycle;Max_cycle;Signal;HPM_P1;HPM_P2
2023/11/11 00:01:00;;;;;;;;;;;;;;;5.43;100.00;99536.31;6211564;23;19961;-77
2023/11/11 00:03:26;;;;;;;;;;;;;;;5.37;100.00;99538.94;6212707;23;19959;-77
2023/11/11 00:05:51;;;;;;;;;;;;;;;5.33;100.00;99543.84;6211688;23;19916;-77
2023/11/11 00:08:18;;;;;;;;;;;;;;;5.30;100.00;99545.03;6210638;23;19918;-77
2023/11/11 00:10:43;;;;;;;;;;;;;;;5.35;100.00;99535.63;6213541;23;19912;-77
2023/11/11 00:13:08;;;;;;;;;;;;;;;5.28;100.00;99541.78;6215748;23;19983;-76
2023/11/11 00:15:35;;;;;;;;;;;;;;;5.25;100.00;99552.84;6218581;23;19916;-77
2023/11/11 00:18:00;;;;;;;;;;;;;;;5.22;100.00;99555.03;6225498;23;19912;-77
2023/11/11 00:20:26;;;;;;;;;;;;;;;5.20;100.00;99554.44;6195972;23;20288;-75
2023/11/11 00:22:52;;;;;;;;;;;;;;;5.16;100.00;99556.66;6222079;23;19989;-77
2023/11/11 00:27:52;;;;;;;;;;;;;;;5.11;100.00;99559.09;6209262;23;19920;-78
2023/11/11 00:30:19;;;;;;;;;;;;;;;5.05;100.00;99551.84;6184977;23;19922;-77
2023/11/11 00:32:48;;;;;;;;;;;;;;;5.00;100.00;99558.56;6214833;23;20362;-78
2023/11/11 00:35:14;;;;;;;;;;;;;;;4.99;100.00;99559.59;6210778;23;19916;-78
2023/11/11 00:37:39;;;;;;;;;;;;;;;4.93;100.00;99557.72;6183859;23;19919;-77
2023/11/11 00:40:04;;;;;;;;;;;;;;;4.88;100.00;99559.28;6213943;23;19911;-78
2023/11/11 00:42:30;;;;;;;;;;;;;;;4.83;100.00;99566.03;6211015;23;19995;-78
2023/11/11 00:44:55;;;;;;;;;;;;;;;4.78;100.00;99573.78;6214022;23;19970;-78
2023/11/11 00:47:20;;;;;;;;;;;;;;;4.74;100.00;99569.84;6213236;23;19907;-77
2023/11/11 00:49:49;;;;;;;;;;;;;;;4.67;100.00;99576.97;6212273;23;19966;-77
2023/11/11 00:52:14;;;;;;;;;;;;;;;4.68;100.00;99574.09;6212377;23;19922;-77
2023/11/11 00:54:39;;;;;;;;;;;;;;;4.63;100.00;99576.50;6213080;23;19951;-77
2023/11/11 00:57:07;;;;;;;;;;;;;;;4.64;100.00;99577.34;6210740;23;19911;-78
2023/11/11 00:59:32;;;;;;;;;;;;;;;4.60;100.00;99578.72;6185836;23;19918;-78
2023/11/11 01:02:00;;;;;;;;;;;;;;;4.53;100.00;99586.66;6212836;23;20011;-78
2023/11/11 01:04:26;;;;;;;;;;;;;;;4.54;100.00;99577.63;6212933;23;19962;-77
2023/11/11 01:06:51;;;;;;;;;;;;;;;4.52;100.00;99571.66;6211747;23;19919;-77
2023/11/11 01:09:17;;;;;;;;;;;;;;;4.45;100.00;99582.25;6214392;23;20011;-77
2023/11/11 01:11:42;;;;;;;;;;;;;;;4.39;100.00;99585.66;6213329;23;19945;-77
2023/11/11 01:14:07;;;;;;;;;;;;;;;4.34;100.00;99588.91;6216307;23;19912;-78
2023/11/11 01:16:33;;;;;;;;;;;;;;;4.27;100.00;99587.19;6214135;23;19947;-77
2023/11/11 01:18:58;;;;;;;;;;;;;;;4.28;100.00;99604.81;6212072;23;19915;-77
2023/11/11 01:21:24;;;;;;;;;;;;;;;4.29;100.00;99601.94;6212704;23;19950;-78
2023/11/11 01:23:49;;;;;;;;;;;;;;;4.30;100.00;99602.78;6212173;23;20233;-78
2023/11/11 01:26:15;;;;;;;;;;;;;;;4.23;100.00;99603.53;6211553;23;19919;-78
2023/11/11 01:28:41;;;;;;;;;;;;;;;4.23;100.00;99613.38;6211523;23;20324;-78
2023/11/11 01:31:06;;;;;;;;;;;;;;;4.22;100.00;99612.53;6212310;23;19912;-78
2023/11/11 01:33:32;;;;;;;;;;;;;;;4.22;100.00;99614.38;6211635;23;19922;-78
2023/11/11 01:36:00;;;;;;;;;;;;;;;4.10;100.00;99620.16;6213788;23;20236;-78
2023/11/11 01:38:26;;;;;;;;;;;;;;;4.11;100.00;99621.00;6215378;23;19935;-78
2023/11/11 01:40:52;;;;;;;;;;;;;;;4.13;100.00;99623.47;6215555;23;19912;-78
2023/11/11 01:43:17;;;;;;;;;;;;;;;4.06;100.00;99634.84;6218150;23;19919;-77
2023/11/11 01:45:45;;;;;;;;;;;;;;;4.08;100.00;99640.81;6218432;23;19911;-77
2023/11/11 01:48:11;;;;;;;;;;;;;;;4.02;100.00;99638.91;6219491;23;19919;-77
2023/11/11 01:50:37;;;;;;;;;;;;;;;4.02;100.00;99643.41;6191720;23;20253;-78
2023/11/11 01:53:02;;;;;;;;;;;;;;;3.98;100.00;99636.78;6215571;23;19916;-77
2023/11/11 01:55:27;;;;;;;;;;;;;;;3.92;100.00;99649.84;6187738;23;19919;-77
2023/11/11 01:57:53;;;;;;;;;;;;;;;3.90;100.00;99640.38;6214482;23;19912;-77
2023/11/11 02:00:18;;;;;;;;;;;;;;;3.98;100.00;99647.44;6188363;23;19959;-77
2023/11/11 02:02:46;;;;;;;;;;;;;;;3.98;100.00;99653.59;6191246;23;19922;-77
2023/11/11 02:05:11;;;;;;;;;;;;;;;3.97;100.00;99646.63;6216460;23;19911;-77
2023/11/11 02:07:36;;;;;;;;;;;;;;;4.01;100.00;99647.91;6215575;23;19986;-77
2023/11/11 02:10:02;;;;;;;;;;;;;;;3.99;100.00;99652.59;6229129;23;19927;-77
2023/11/11 02:12:28;;;;;;;;;;;;;;;3.99;100.00;99649.94;6231721;23;19923;-77
2023/11/11 02:20:38;;;;;;;;;;;;;;;3.89;100.00;99649.34;6243671;22;19947;-78
2023/11/11 02:23:03;;;;;;;;;;;;;;;3.83;100.00;99648.25;6246555;23;19923;-78
2023/11/11 02:25:32;;;;;;;;;;;;;;;3.79;100.00;99650.47;6245914;23;20374;-78
2023/11/11 02:27:57;;;;;;;;;;;;;;;3.79;100.00;99652.31;6243239;23;20320;-77
2023/11/11 02:30:23;;;;;;;;;;;;;;;3.80;100.00;99651.28;6245636;23;19982;-78
2023/11/11 02:32:48;;;;;;;;;;;;;;;3.78;100.00;99656.81;6244382;23;19919;-77
2023/11/11 02:35:14;;;;;;;;;;;;;;;3.79;100.00;99668.28;6243339;23;19922;-77
2023/11/11 02:37:39;;;;;;;;;;;;;;;3.88;100.00;99674.34;6243058;23;19958;-78
2023/11/11 02:40:06;;;;;;;;;;;;;;;3.95;100.00;99667.28;6245532;23;19912;-77
2023/11/11 02:42:31;;;;;;;;;;;;;;;4.01;100.00;99663.88;6241785;23;19916;-77
2023/11/11 02:45:05;;;;;;;;;;;;;;;4.09;100.00;99665.63;6245078;23;20181;-77
2023/11/11 02:47:31;;;;;;;;;;;;;;;4.12;100.00;99673.25;6244271;23;19974;-77
2023/11/11 02:49:57;;;;;;;;;;;;;;;4.09;100.00;99670.97;6242381;23;19915;-77
2023/11/11 02:52:22;;;;;;;;;;;;;;;4.08;100.00;99670.13;6244309;23;19947;-77
2023/11/11 02:54:48;;;;;;;;;;;;;;;4.10;100.00;99668.09;6243573;23;19954;-77
2023/11/11 02:57:13;;;;;;;;;;;;;;;4.05;100.00;99669.66;6242095;23;19942;-77
2023/11/11 02:59:40;;;;;;;;;;;;;;;4.02;100.00;99675.34;6243035;23;20314;-78
2023/11/11 03:02:05;;;;;;;;;;;;;;;3.95;100.00;99672.59;6242077;23;19911;-78
2023/11/11 03:04:30;;;;;;;;;;;;;;;3.92;100.00;99680.94;6241921;23;19912;-77
2023/11/11 03:06:55;;;;;;;;;;;;;;;3.87;100.00;99684.16;6242276;23;19912;-75
2023/11/11 03:09:21;;;;;;;;;;;;;;;3.86;100.00;99679.84;6243640;23;19916;-75
2023/11/11 03:11:46;;;;;;;;;;;;;;;3.85;100.00;99680.84;6242339;23;19916;-75
2023/11/11 03:14:11;;;;;;;;;;;;;;;3.90;100.00;99678.47;6244258;23;19911;-76
2023/11/11 03:16:38;;;;;;;;;;;;;;;3.84;100.00;99681.06;6243019;23;20320;-74
2023/11/11 03:19:06;;;;;;;;;;;;;;;3.84;100.00;99689.84;6242476;23;20244;-74
2023/11/11 03:21:32;;;;;;;;;;;;;;;3.78;100.00;99694.06;6242912;23;19937;-74
2023/11/11 03:23:57;;;;;;;;;;;;;;;3.69;100.00;99702.31;6243510;23;20316;-75
2023/11/11 03:26:23;;;;;;;;;;;;;;;3.68;100.00;99705.97;6242481;23;19962;-74
2023/11/11 03:28:49;;;;;;;;;;;;;;;3.61;100.00;99705.88;6242336;23;19912;-74
2023/11/11 03:31:14;;;;;;;;;;;;;;;3.58;100.00;99703.56;6242943;23;19912;-74
2023/11/11 03:33:39;;;;;;;;;;;;;;;3.54;100.00;99704.91;6243105;23;20240;-75
2023/11/11 03:36:04;;;;;;;;;;;;;;;3.49;100.00;99708.97;6241872;23;20243;-74
2023/11/11 03:38:30;;;;;;;;;;;;;;;3.49;100.00;99711.63;6242439;23;20288;-74
2023/11/11 03:40:57;;;;;;;;;;;;;;;3.44;100.00;99711.34;6242813;23;20040;-74
2023/11/11 03:43:23;;;;;;;;;;;;;;;3.44;100.00;99727.28;6242770;23;19923;-74
2023/11/11 03:45:48;;;;;;;;;;;;;;;3.51;100.00;99727.41;6243237;23;19912;-74
2023/11/11 03:48:13;;;;;;;;;;;;;;;3.54;100.00;99740.34;6243719;23;19947;-74
2023/11/11 03:50:39;;;;;;;;;;;;;;;3.61;100.00;99737.81;6242972;23;19911;-75
2023/11/11 03:53:04;;;;;;;;;;;;;;;3.64;100.00;99748.09;6244406;23;19912;-74
2023/11/11 03:55:29;;;;;;;;;;;;;;;3.69;100.00;99745.75;6242975;23;19912;-74
2023/11/11 03:57:54;;;;;;;;;;;;;;;3.71;100.00;99754.34;6242983;23;19919;-74
2023/11/11 04:00:20;;;;;;;;;;;;;;;3.75;100.00;99752.16;6243221;23;19912;-74
2023/11/11 04:02:46;;;;;;;;;;;;;;;3.78;100.00;99759.81;6243878;23;19941;-74
2023/11/11 04:05:15;;;;;;;;;;;;;;;3.82;100.00;99752.28;6242413;23;19959;-76
2023/11/11 04:07:40;;;;;;;;;;;;;;;3.85;100.00;99759.91;6242566;23;19907;-76
2023/11/11 04:10:06;;;;;;;;;;;;;;;3.88;100.00;99759.56;6243948;23;20319;-76
2023/11/11 04:12:31;;;;;;;;;;;;;;;3.93;100.00;99767.81;6243126;23;20332;-73
2023/11/11 04:14:56;;;;;;;;;;;;;;;3.97;100.00;99766.44;6243197;23;20427;-74
2023/11/11 04:17:22;;;;;;;;;;;;;;;4.03;100.00;99771.06;6243226;23;19912;-74
2023/11/11 04:19:47;;;;;;;;;;;;;;;4.14;100.00;99777.78;6241854;23;19937;-76
2023/11/11 04:22:12;;;;;;;;;;;;;;;4.15;100.00;99783.94;6243671;23;20312;-75
2023/11/11 04:24:37;;;;;;;;;;;;;;;4.13;100.00;99788.59;6242244;23;19915;-74
2023/11/11 04:27:03;;;;;;;;;;;;;;;4.16;100.00;99788.25;6241605;23;20021;-73
2023/11/11 04:29:30;;;;;;;;;;;;;;;4.17;100.00;99789.91;6242612;23;19966;-74
2023/11/11 04:31:55;;;;;;;;;;;;;;;4.15;100.00;99792.72;6242481;23;19920;-74
2023/11/11 04:34:21;;;;;;;;;;;;;;;4.12;100.00;99789.63;6241345;23;19915;-74
2023/11/11 04:36:47;;;;;;;;;;;;;;;4.07;100.00;99792.81;6243539;23;19912;-75
2023/11/11 04:39:13;;;;;;;;;;;;;;;4.05;100.00;99786.84;6243986;23;20317;-75
2023/11/11 04:41:38;;;;;;;;;;;;;;;4.03;100.00;99795.03;6242684;23;19931;-74
2023/11/11 04:44:03;;;;;;;;;;;;;;;4.15;100.00;99807.91;6250560;23;19981;-74
2023/11/11 04:46:29;;;;;;;;;;;;;;;4.33;100.00;99813.72;6250815;23;19915;-74
2023/11/11 04:48:54;;;;;;;;;;;;;;;4.36;100.00;99831.16;6245201;23;19942;-74
2023/11/11 04:51:20;;;;;;;;;;;;;;;4.30;100.00;99818.59;6244541;23;19919;-74
2023/11/11 04:53:45;;;;;;;;;;;;;;;4.39;100.00;99821.00;6243404;23;19915;-75
2023/11/11 04:56:10;;;;;;;;;;;;;;;4.37;100.00;99832.81;6242301;23;19986;-75
2023/11/11 04:58:38;;;;;;;;;;;;;;;4.42;100.00;99818.94;6243359;23;19912;-75
2023/11/11 05:01:03;;;;;;;;;;;;;;;4.35;100.00;99835.69;6262759;23;19915;-75
2023/11/11 05:03:28;;;;;;;;;;;;;;;4.25;100.00;99827.94;6262490;23;19912;-75
2023/11/11 05:05:54;;;;;;;;;;;;;;;4.21;100.00;99828.50;6244721;23;19911;-76
2023/11/11 05:08:19;;;;;;;;;;;;;;;4.10;100.00;99830.56;6243628;23;19916;-75
2023/11/11 05:10:44;;;;;;;;;;;;;;;4.05;100.00;99832.97;6242772;23;20320;-75
2023/11/11 05:13:09;;;;;;;;;;;;;;;4.00;100.00;99837.16;6244964;23;20320;-75
2023/11/11 05:15:42;;;;;;;;;;;;;;;4.01;100.00;99844.13;6246479;23;20252;-74
2023/11/11 05:18:08;;;;;;;;;;;;;;;3.92;100.00;99840.69;6245259;23;19920;-75
2023/11/11 05:20:34;;;;;;;;;;;;;;;3.88;100.00;99845.56;6245065;23;19915;-75
2023/11/11 05:22:59;;;;;;;;;;;;;;;3.85;100.00;99843.25;6245443;23;19918;-75
2023/11/11 05:25:24;;;;;;;;;;;;;;;3.96;100.00;99846.53;6244264;23;20029;-75
2023/11/11 05:27:50;;;;;;;;;;;;;;;4.00;100.00;99845.97;6243056;23;19919;-75
2023/11/11 05:30:16;;;;;;;;;;;;;;;4.02;100.00;99835.97;6243845;23;19916;-75
2023/11/11 05:32:42;;;;;;;;;;;;;;;4.06;100.00;99853.22;6244521;23;19947;-75
2023/11/11 05:35:07;;;;;;;;;;;;;;;4.06;100.00;99857.75;6244926;23;19911;-75
2023/11/11 05:37:32;;;;;;;;;;;;;;;4.07;100.00;99860.22;6245362;23;20322;-75
2023/11/11 05:39:57;;;;;;;;;;;;;;;4.14;100.00;99863.03;6245204;23;19911;-75
2023/11/11 05:42:23;;;;;;;;;;;;;;;4.12;100.00;99856.19;6244309;23;19965;-75
2023/11/11 05:44:48;;;;;;;;;;;;;;;4.18;100.00;99866.16;6245306;23;19947;-75
2023/11/11 05:47:16;;;;;;;;;;;;;;;4.35;100.00;99858.81;6246193;23;20229;-75
2023/11/11 05:49:43;;;;;;;;;;;;;;;4.31;100.00;99863.69;6245514;23;19911;-75
2023/11/11 05:52:08;;;;;;;;;;;;;;;4.35;100.00;99862.31;6245334;23;20235;-75
2023/11/11 05:54:33;;;;;;;;;;;;;;;4.38;100.00;99861.97;6245668;23;19990;-75
2023/11/11 05:56:59;;;;;;;;;;;;;;;4.35;100.00;99851.69;6244907;23;20280;-75
2023/11/11 05:59:24;;;;;;;;;;;;;;;4.36;100.00;99863.16;6244692;23;19923;-75
2023/11/11 06:01:49;;;;;;;;;;;;;;;4.28;100.00;99863.22;6244607;23;19918;-75
2023/11/11 06:04:15;;;;;;;;;;;;;;;4.19;100.00;99878.47;6245545;23;19911;-75
2023/11/11 06:06:43;;;;;;;;;;;;;;;4.16;100.00;99876.16;6245721;23;19915;-74
2023/11/11 06:12:11;;;;;;;;;;;;;;;4.15;100.00;99885.97;6201897;22;19920;-75
2023/11/11 06:15:13;;;;;;;;;;;;;;;4.13;100.00;99889.81;6215555;23;19915;-75
2023/11/11 06:17:51;;;;;;;;;;;;;;;4.14;100.00;99902.13;6214651;23;19919;-75
2023/11/11 06:20:17;;;;;;;;;;;;;;;4.13;100.00;99905.81;6213806;23;19912;-75
2023/11/11 06:22:45;;;;;;;;;;;;;;;4.19;100.00;99911.25;6213638;23;19918;-75
2023/11/11 06:25:10;;;;;;;;;;;;;;;4.23;100.00;99917.88;6215193;23;19923;-75
2023/11/11 06:27:36;;;;;;;;;;;;;;;4.28;100.00;99917.34;6212926;23;19908;-75
2023/11/11 06:30:01;;;;;;;;;;;;;;;4.30;100.00;99917.16;6215149;23;19959;-76
2023/11/11 06:32:26;;;;;;;;;;;;;;;4.35;100.00;99926.28;6214291;23;19916;-76
2023/11/11 06:34:51;;;;;;;;;;;;;;;4.45;100.00;99926.03;6212632;23;20485;-75
2023/11/11 06:37:17;;;;;;;;;;;;;;;4.49;100.00;99927.34;6215150;23;20482;-76
2023/11/11 06:39:42;;;;;;;;;;;;;;;4.55;100.00;99933.78;6213119;23;19966;-75
2023/11/11 06:42:07;;;;;;;;;;;;;;;4.53;100.00;99936.59;6212664;23;19912;-75
2023/11/11 06:44:33;;;;;;;;;;;;;;;4.54;100.00;99940.13;6213469;23;19950;-75
2023/11/11 06:46:58;;;;;;;;;;;;;;;4.53;100.00;99944.59;6214744;23;19951;-75
2023/11/11 06:49:24;;;;;;;;;;;;;;;4.48;100.00;99946.16;6212923;23;20345;-76
2023/11/11 06:51:49;;;;;;;;;;;;;;;4.50;100.00;99949.47;6215115;23;20329;-75
2023/11/11 06:54:15;;;;;;;;;;;;;;;4.51;100.00;99945.81;6213678;23;19990;-76
2023/11/11 06:56:40;;;;;;;;;;;;;;;4.54;100.00;99958.78;6212513;23;20325;-75
2023/11/11 06:59:08;;;;;;;;;;;;;;;4.54;100.00;99956.13;6213273;23;20766;-75
2023/11/11 07:01:33;;;;;;;;;;;;;;;4.54;100.00;99962.25;6213724;23;20019;-76
2023/11/11 07:04:00;;;;;;;;;;;;;;;4.56;100.00;99959.44;6212567;23;19969;-76
2023/11/11 07:06:26;;;;;;;;;;;;;;;4.61;100.00;99956.22;6215093;23;19982;-76
2023/11/11 07:08:51;;;;;;;;;;;;;;;4.58;100.00;99960.09;6209726;23;20327;-76
2023/11/11 07:11:16;;;;;;;;;;;;;;;4.60;100.00;99966.03;6211235;23;20197;-79
2023/11/11 07:13:43;;;;;;;;;;;;;;;4.70;100.00;99961.28;6213211;23;19981;-79
2023/11/11 07:16:09;;;;;;;;;;;;;;;4.87;100.00;99958.47;6213787;23;19919;-78
2023/11/11 07:18:35;;;;;;;;;;;;;;;4.82;100.00;99960.84;6213099;23;19916;-78
2023/11/11 07:21:01;;;;;;;;;;;;;;;4.81;100.00;99956.53;6187044;23;19916;-79
2023/11/11 07:23:26;;;;;;;;;;;;;;;4.89;100.00;99958.28;6213782;23;19918;-80
2023/11/11 07:25:52;;;;;;;;;;;;;;;4.84;100.00;99957.00;6214028;23;19912;-78
2023/11/11 07:28:17;;;;;;;;;;;;;;;4.83;100.00;99954.50;6213503;23;19912;-79
2023/11/11 07:30:43;;;;;;;;;;;;;;;4.84;100.00;99961.50;6212371;23;19915;-79
2023/11/11 07:33:08;;;;;;;;;;;;;;;4.83;100.00;99965.19;6212114;23;19966;-78
2023/11/11 07:35:33;;;;;;;;;;;;;;;4.87;100.00;99971.81;6212676;23;19932;-78
2023/11/11 07:38:00;;;;;;;;;;;;;;;4.90;100.00;99986.59;6211520;23;19939;-78
2023/11/11 07:40:25;;;;;;;;;;;;;;;4.98;100.00;99987.34;6212787;23;19930;-77
2023/11/11 07:42:52;;;;;;;;;;;;;;;5.02;100.00;99985.19;6213446;23;20015;-77
2023/11/11 07:45:23;;;;;;;;;;;;;;;5.06;100.00;99988.31;6212207;23;19912;-76
2023/11/11 07:47:48;;;;;;;;;;;;;;;5.11;100.00;100001.94;6213298;23;20021;-79
2023/11/11 07:50:15;;;;;;;;;;;;;;;5.08;100.00;100002.28;6212846;23;19911;-73
2023/11/11 07:52:40;;;;;;;;;;;;;;;5.18;100.00;100005.50;6211803;23;20332;-74
2023/11/11 07:55:06;;;;;;;;;;;;;;;5.57;100.00;100009.75;6207410;23;19915;-74
2023/11/11 07:57:33;;;;;;;;;;;;;;;5.70;100.00;100003.78;6209987;23;19927;-76
2023/11/11 07:59:58;;;;;;;;;;;;;;;5.77;100.00;100020.69;6209397;23;19916;-74
2023/11/11 08:02:25;;;;;;;;;;;;;;;5.78;100.00;100013.53;6210403;23;19966;-74
2023/11/11 08:04:50;;;;;;;;;;;;;;;5.96;100.00;100022.97;6210987;23;19943;-74
2023/11/11 08:07:18;;;;;;;;;;;;;;;6.02;100.00;100016.91;6211646;23;19915;-74
2023/11/11 08:09:46;;;;;;;;;;;;;;;5.99;100.00;100017.28;6209987;23;19911;-74
2023/11/11 08:12:12;;;;;;;;;;;;;;;6.06;100.00;100028.88;6210389;23;19951;-75
2023/11/11 08:14:37;;;;;;;;;;;;;;;6.13;100.00;100024.44;6210985;23;19974;-75
2023/11/11 08:17:02;;;;;;;;;;;;;;;6.15;100.00;100033.13;6211188;23;19955;-74
2023/11/11 08:19:27;;;;;;;;;;;;;;;6.04;100.00;100030.91;6211109;23;19916;-75
2023/11/11 08:27:31;;;;;;;;;;;;;;;5.88;100.00;100021.25;6211072;23;20263;-75
2023/11/11 08:30:11;;;;;;;;;;;;;;;5.92;100.00;100020.69;6212928;23;20276;-75
2023/11/11 08:35:40;;;;;;;;;;;;;;;6.05;100.00;100029.91;6221020;23;19923;-76
2023/11/11 08:38:11;;;;;;;;;;;;;;;6.17;100.00;100025.75;6214482;23;20300;-75
2023/11/11 08:40:36;;;;;;;;;;;;;;;6.35;100.00;100029.84;6211488;23;19919;-76
2023/11/11 08:43:02;;;;;;;;;;;;;;;6.52;100.00;100039.25;6212111;23;19923;-76
2023/11/11 08:45:27;;;;;;;;;;;;;;;6.36;100.00;100044.81;6212711;23;19927;-76
2023/11/11 08:47:53;;;;;;;;;;;;;;;6.47;100.00;100054.19;6210649;23;20395;-76
2023/11/11 08:50:19;;;;;;;;;;;;;;;6.61;100.00;100055.16;6213027;23;20308;-77
2023/11/11 08:52:44;;;;;;;;;;;;;;;6.51;100.00;100052.81;6210700;23;19912;-76
2023/11/11 08:55:10;;;;;;;;;;;;;;;6.35;100.00;100043.19;6209702;23;19942;-76
2023/11/11 08:57:36;;;;;;;;;;;;;;;6.25;100.00;100048.00;6211362;23;19984;-76
2023/11/11 09:00:01;;;;;;;;;;;;;;;6.16;100.00;100045.47;6211896;23;19942;-76
2023/11/11 09:02:26;;;;;;;;;;;;;;;6.07;100.00;100050.09;6208356;23;19981;-77
2023/11/11 09:04:52;;;;;;;;;;;;;;;6.17;100.00;100051.63;6212834;23;19939;-76
2023/11/11 09:07:18;;;;;;;;;;;;;;;6.18;100.00;100055.94;6186532;23;20340;-77
2023/11/11 09:09:44;;;;;;;;;;;;;;;6.50;100.00;100060.00;6210996;23;19917;-77
2023/11/11 09:12:09;;;;;;;;;;;;;;;6.86;100.00;100065.50;6210392;23;19922;-77
2023/11/11 09:14:34;;;;;;;;;;;;;;;6.68;100.00;100056.88;6211291;23;20010;-77
2023/11/11 09:17:00;;;;;;;;;;;;;;;6.52;100.00;100060.66;6210299;23;19916;-77
2023/11/11 09:19:26;;;;;;;;;;;;;;;6.38;100.00;100064.19;6211024;23;20304;-77
2023/11/11 09:21:51;;;;;;;;;;;;;;;6.37;100.00;100063.38;6210604;23;20237;-77
2023/11/11 09:24:16;;;;;;;;;;;;;;;6.44;100.00;100066.13;6209090;23;19916;-77
2023/11/11 09:26:42;;;;;;;;;;;;;;;6.39;100.00;100071.19;6211405;23;19919;-77
2023/11/11 09:29:07;;;;;;;;;;;;;;;6.34;100.00;100062.94;6208097;23;19916;-80
2023/11/11 09:31:33;;;;;;;;;;;;;;;6.57;100.00;100072.59;6210815;23;19951;-77
2023/11/11 09:34:01;;;;;;;;;;;;;;;6.66;100.00;100077.66;6208757;23;19916;-76
2023/11/11 09:36:29;;;;;;;;;;;;;;;6.50;100.00;100073.38;6213066;23;20027;-75
2023/11/11 09:38:54;;;;;;;;;;;;;;;6.39;100.00;100078.41;6215337;23;20277;-76
2023/11/11 09:41:20;;;;;;;;;;;;;;;6.63;100.00;100067.31;6212826;23;19916;-76
2023/11/11 09:43:45;;;;;;;;;;;;;;;6.34;100.00;100070.94;6212214;23;20343;-77
2023/11/11 09:46:13;;;;;;;;;;;;;;;6.49;100.00;100081.56;6210734;23;19936;-75
2023/11/11 09:48:38;;;;;;;;;;;;;;;6.50;100.00;100067.19;6212671;23;19916;-75
2023/11/11 09:51:06;;;;;;;;;;;;;;;6.71;100.00;100073.56;6208375;23;19922;-75
2023/11/11 09:53:32;;;;;;;;;;;;;;;6.94;100.00;100065.34;6211687;23;19916;-74
2023/11/11 09:55:57;;;;;;;;;;;;;;;6.73;100.00;100075.03;6187608;23;20006;-75
2023/11/11 09:58:26;;;;;;;;;;;;;;;6.72;100.00;100076.06;6187310;23;19916;-75
2023/11/11 10:00:54;;;;;;;;;;;;;;;6.41;100.00;100079.03;6185023;23;19911;-75
2023/11/11 10:03:19;;;;;;;;;;;;;;;6.45;100.00;100081.13;6212142;23;19995;-75
2023/11/11 10:05:44;;;;;;;;;;;;;;;6.58;100.00;100090.31;6214622;23;19923;-75
2023/11/11 10:08:10;;;;;;;;;;;;;;;6.85;100.00;100085.25;6214425;23;19999;-76
2023/11/11 10:10:35;;;;;;;;;;;;;;;6.76;100.00;100085.34;6214841;23;19966;-76
2023/11/11 10:13:00;;;;;;;;;;;;;;;6.58;100.00;100085.81;6214188;23;19912;-76
2023/11/11 10:15:26;;;;;;;;;;;;;;;6.58;100.00;100084.97;6211513;23;19947;-76
2023/11/11 10:17:51;;;;;;;;;;;;;;;6.69;100.00;100092.50;6213390;23;19919;-76
2023/11/11 10:20:17;;;;;;;;;;;;;;;6.96;100.00;100092.75;6213401;23;19916;-75
2023/11/11 10:22:48;;;;;;;;;;;;;;;7.05;100.00;100091.63;6211778;23;20037;-75
2023/11/11 10:25:17;;;;;;;;;;;;;;;7.47;100.00;100088.22;6214057;23;19998;-75
2023/11/11 10:27:46;;;;;;;;;;;;;;;7.42;100.00;100086.13;6210159;23;20432;-75
2023/11/11 10:30:16;;;;;;;;;;;;;;;7.68;100.00;100096.19;6211675;23;19994;-76
2023/11/11 10:32:41;;;;;;;;;;;;;;;7.73;100.00;100083.03;6209506;23;19947;-75
2023/11/11 10:35:07;;;;;;;;;;;;;;;7.76;100.00;100100.56;6213614;23;19912;-75
2023/11/11 10:37:32;;;;;;;;;;;;;;;7.36;100.00;100087.72;6211469;23;19919;-75
2023/11/11 10:39:57;;;;;;;;;;;;;;;7.41;100.00;100090.63;6210898;23;19916;-75
2023/11/11 10:42:23;;;;;;;;;;;;;;;7.48;100.00;100095.22;6210926;23;19922;-75
2023/11/11 10:44:49;;;;;;;;;;;;;;;7.51;100.00;100092.16;6211432;23;20355;-75
2023/11/11 10:47:14;;;;;;;;;;;;;;;7.41;100.00;100089.81;6210387;23;20245;-75
2023/11/11 10:49:40;;;;;;;;;;;;;;;7.52;100.00;100096.50;6211508;23;19912;-75
2023/11/11 10:52:06;;;;;;;;;;;;;;;7.62;100.00;100105.00;6185380;23;20322;-75
2023/11/11 10:54:31;;;;;;;;;;;;;;;7.58;100.00;100104.56;6182788;23;19930;-74
2023/11/11 10:56:57;;;;;;;;;;;;;;;7.95;98.79;100095.50;6184272;23;20245;-75
2023/11/11 10:59:24;;;;;;;;;;;;;;;8.25;97.62;100093.38;6185939;23;19912;-76
2023/11/11 11:01:54;;;;;;;;;;;;;;;7.85;97.50;100098.53;6210300;23;19922;-77
2023/11/11 11:04:19;;;;;;;;;;;;;;;7.79;97.67;100093.97;6212263;23;19916;-77
2023/11/11 11:06:47;;;;;;;;;;;;;;;7.73;100.00;100096.44;6184465;23;20875;-77
2023/11/11 11:09:31;;;;;;;;;;;;;;;7.99;98.25;100107.50;6210050;23;19982;-76
2023/11/11 11:12:18;;;;;;;;;;;;;;;7.95;100.00;100109.72;6211868;23;19912;-77
2023/11/11 11:14:46;;;;;;;;;;;;;;;7.95;100.00;100112.41;6182895;23;20328;-75
2023/11/11 11:17:12;;;;;;;;;;;;;;;8.21;100.00;100113.56;6210317;23;19918;-75
2023/11/11 11:19:53;;;;;;;;;;;;;;;8.05;100.00;100112.03;6212123;23;19954;-74
2023/11/11 11:22:22;;;;;;;;;;;;;;;8.38;100.00;100115.91;6209979;23;20348;-75
2023/11/11 11:24:48;;;;;;;;;;;;;;;8.51;100.00;100120.53;6211464;23;19975;-75
2023/11/11 11:27:13;;;;;;;;;;;;;;;8.30;98.16;100116.91;6204120;23;19920;-74
2023/11/11 11:29:41;;;;;;;;;;;;;;;8.27;99.24;100112.78;6216362;23;19912;-75
2023/11/11 11:32:07;;;;;;;;;;;;;;;7.99;98.14;100110.97;6212951;23;19978;-76
2023/11/11 11:34:33;;;;;;;;;;;;;;;7.81;98.49;100122.22;6211723;23;19916;-76
2023/11/11 11:36:58;;;;;;;;;;;;;;;7.63;97.90;100108.50;6210374;23;19958;-75
2023/11/11 11:39:25;;;;;;;;;;;;;;;7.54;98.46;100113.19;6210618;23;19912;-76
2023/11/11 11:41:53;;;;;;;;;;;;;;;7.47;99.50;100106.94;6185318;23;19912;-75
2023/11/11 11:44:18;;;;;;;;;;;;;;;7.42;99.55;100112.91;6184586;23;20260;-76
2023/11/11 11:46:45;;;;;;;;;;;;;;;7.40;100.00;100114.94;6211524;23;19915;-76
2023/11/11 11:49:10;;;;;;;;;;;;;;;7.52;99.39;100116.06;6211622;23;19915;-75
2023/11/11 11:51:37;;;;;;;;;;;;;;;7.63;100.00;100103.16;6183693;23;19997;-75
2023/11/11 11:54:02;;;;;;;;;;;;;;;7.86;99.23;100116.28;6182634;23;19922;-74
2023/11/11 11:56:28;;;;;;;;;;;;;;;8.89;93.42;100109.25;6212107;23;19911;-76
2023/11/11 11:58:53;;;;;;;;;;;;;;;10.14;87.20;100103.13;6212877;23;19911;-76
2023/11/11 12:01:22;;;;;;;;;;;;;;;10.69;81.29;100107.25;6211375;23;19916;-77
2023/11/11 12:03:47;;;;;;;;;;;;;;;11.14;79.36;100108.19;6211756;23;19916;-75
2023/11/11 12:06:13;;;;;;;;;;;;;;;11.00;80.18;100110.97;6212081;23;19912;-76
2023/11/11 12:08:46;;;;;;;;;;;;;;;12.23;73.88;100112.34;6183575;23;20344;-75
2023/11/11 12:11:11;;;;;;;;;;;;;;;12.51;72.60;100122.59;6184051;23;19912;-76
2023/11/11 12:13:37;;;;;;;;;;;;;;;12.53;70.39;100120.44;6210532;23;19923;-77
2023/11/11 12:16:02;;;;;;;;;;;;;;;13.38;67.75;100112.34;6213344;23;19912;-75
2023/11/11 12:18:29;;;;;;;;;;;;;;;12.69;69.30;100115.50;6212448;23;20652;-76
2023/11/11 12:20:55;;;;;;;;;;;;;;;11.68;74.73;100112.06;6214586;23;19912;-75
2023/11/11 12:23:20;;;;;;;;;;;;;;;11.10;77.28;100123.16;6186139;23;19991;-76
2023/11/11 12:25:45;;;;;;;;;;;;;;;10.47;79.35;100122.91;6211581;23;20218;-75
2023/11/11 12:28:10;;;;;;;;;;;;;;;10.84;80.07;100120.41;6212852;23;19939;-76
2023/11/11 12:30:36;;;;;;;;;;;;;;;12.36;73.18;100114.88;6213664;23;19923;-74
2023/11/11 12:33:05;;;;;;;;;;;;;;;11.95;71.97;100127.97;6212318;23;19918;-76
2023/11/11 12:35:32;;;;;;;;;;;;;;;11.71;72.79;100120.75;6212308;23;19912;-76
2023/11/11 12:37:57;;;;;;;;;;;;;;;10.70;76.72;100122.34;6186397;23;20514;-75
2023/11/11 12:40:30;;;;;;;;;;;;;;;10.90;76.56;100124.91;6214381;23;19912;-75
2023/11/11 12:42:58;;;;;;;;;;;;;;;10.08;80.43;100120.09;6214616;23;19918;-76
2023/11/11 12:45:23;;;;;;;;;;;;;;;9.59;81.98;100126.81;6213448;23;19912;-76
2023/11/11 12:47:50;;;;;;;;;;;;;;;9.29;84.14;100127.25;6210028;23;19973;-76
2023/11/11 12:50:16;;;;;;;;;;;;;;;9.03;86.39;100123.50;6185770;23;20443;-76
2023/11/11 12:52:43;;;;;;;;;;;;;;;8.92;87.28;100125.78;6210252;23;19912;-76
2023/11/11 12:55:21;;;;;;;;;;;;;;;8.92;88.14;100124.94;6185319;23;19912;-76
2023/11/11 12:57:46;;;;;;;;;;;;;;;9.01;87.19;100130.94;6211050;23;19985;-76